LICGDTTA

Guest
Details From LICG - Pantelleria
To DTTA - Carthage
Flight Number -
Tags Generated
Created
Modified
Stats Distance 84 nm / 155 km
Max Altitude 0 ft / 0 m
Waypoints 2
Social Downloads 2
Likes 0
Share VATSIM

Download

Looking for another format? Having issues loading an existing format? Contact us
Advertisement - Login to hide

Notes

Generated

Route

LICG DTTA

ID Type Via Altitude Latitude Longitude Leg Dist Tot Dist Heading (true) Name
O LICG APT - 0 ft / 0 m 36.80796˚ 11.96327˚ - 0 nm - -
O DTTA APT - 0 ft / 0 m 36.85426˚ 10.21769˚ 83 nm 83 nm 272° / 271° -

Altitude Profile

Advertisement - Login to hide

LICG

Details ICAO LICG (PNL)
Name PANTELLERIA
Region Italy
Timezone Europe/Rome (UTC+1.0)
Stats Elevation 635 ft / 194 m (AMSL)
Location 36.814378° 11.966227°
Runways 2
Magnetic Variation 2.689° E

METAR

LICG 141755Z 22006KT 9999 FEW020 13/11 Q1020 RMK FEW VIS MIN 9999 WIND THR08 /////KT WIND THR21 23007KT BLU

Decode

TAF

Not found

Departure Runways

ID Width Length Bearing (true) Bearing (mag) Surface Threshold Offset Overrun Length
03 98 ft / 30 m 4,044 ft / 1,233 m 27.69° 25.00° Asphalt 0 ft / 0 m 0 ft / 0 m
08 148 ft / 45 m 5,449 ft / 1,661 m 76.32° 73.63° Asphalt 0 ft / 0 m 0 ft / 0 m
21 98 ft / 30 m 4,044 ft / 1,233 m 207.69° 205.00° Asphalt 0 ft / 0 m 0 ft / 0 m
26 148 ft / 45 m 5,449 ft / 1,661 m 256.33° 253.64° Asphalt 0 ft / 0 m 0 ft / 0 m

DTTA

Details ICAO DTTA (TUN)
Name CARTHAGE
Region Tunisia
Timezone Africa/Tunis (UTC+1.0)
Stats Elevation 22 ft / 7 m (AMSL)
Location 36.851267° 10.230027°
Runways 2
Magnetic Variation 2.403° E

METAR

DTTA 141900Z 00000KT 9999 SCT026 11/04 Q1019 NOSIG

Decode

TAF

TAF DTTA 141100Z 1412/1512 24012KT 9999 FEW026

Decode

Destination Runways

ID Width Length Bearing (true) Bearing (mag) Surface Threshold Offset Overrun Length
01 148 ft / 45 m 10,502 ft / 3,201 m 12.29° 9.89° Asphalt 0 ft / 0 m 197 ft / 60 m
11 148 ft / 45 m 9,345 ft / 2,848 m 112.55° 110.15° Asphalt 0 ft / 0 m 643 ft / 196 m
19 148 ft / 45 m 10,502 ft / 3,201 m 192.29° 189.89° Asphalt 0 ft / 0 m 197 ft / 60 m
29 148 ft / 45 m 9,345 ft / 2,848 m 292.57° 290.17° Asphalt 657 ft / 200 m 197 ft / 60 m

Approach Navaids

Runway Type Ident Frequency Range Bearing (true) Bearing (mag) Slope Elevation
01 Glidescope TBL 111.10 MHz 10 nm / 19 km 10.00° 7.60° 3.00° 22 ft / 7 m (AMSL)
01 DME TBL 111.10 MHz 18 nm / 33 km - - - 22 ft / 7 m (AMSL)
19 Localiser TSI 110.30 MHz 18 nm / 33 km 192.29° 189.89° - 13 ft / 4 m (AMSL)
19 Glidescope TSI 110.30 MHz 10 nm / 19 km 192.29° 189.89° 3.00° 22 ft / 7 m (AMSL)
29 Localiser TKE 108.50 MHz 18 nm / 33 km 292.54° 290.14° - 22 ft / 7 m (AMSL)
29 Glidescope TKE 108.50 MHz 10 nm / 19 km 292.56° 290.15° 3.00° 22 ft / 7 m (AMSL)
29 DME TKE 108.50 MHz 18 nm / 33 km - - - 22 ft / 7 m (AMSL)

Popular Alternatives